createdAt,value
2018-10-03T00:00:16.746Z,12.92
2018-10-03T00:02:45.916Z,12.93
2018-10-03T00:05:14.504Z,12.88
2018-10-03T00:07:43.113Z,12.97
2018-10-03T00:10:12.811Z,12.89
2018-10-03T00:12:41.469Z,12.94
2018-10-03T00:15:10.136Z,12.96
2018-10-03T00:17:38.904Z,12.94
2018-10-03T00:20:07.572Z,12.89
2018-10-03T00:22:36.171Z,12.82
2018-10-03T00:25:04.786Z,12.88
2018-10-03T00:27:33.430Z,12.89
2018-10-03T00:30:02.019Z,12.82
2018-10-03T00:32:30.643Z,12.81
2018-10-03T00:34:59.250Z,12.72
2018-10-03T00:37:27.808Z,12.66
2018-10-03T00:39:56.547Z,12.67
2018-10-03T00:42:25.123Z,12.72
2018-10-03T00:44:53.724Z,12.55
2018-10-03T00:47:22.400Z,12.69
2018-10-03T00:49:51.036Z,12.80
2018-10-03T00:52:19.697Z,12.76
2018-10-03T00:54:48.383Z,12.74
2018-10-03T00:57:16.975Z,12.69
2018-10-03T00:59:45.712Z,12.80
2018-10-03T01:02:14.564Z,12.76
2018-10-03T01:04:43.155Z,12.90
2018-10-03T01:07:12.031Z,12.90
2018-10-03T01:09:40.697Z,12.94
2018-10-03T01:12:09.276Z,12.95
2018-10-03T01:14:37.840Z,12.97
2018-10-03T01:17:06.747Z,13.11
2018-10-03T01:19:35.359Z,13.15
2018-10-03T01:22:03.944Z,13.25
2018-10-03T01:24:32.639Z,13.27
2018-10-03T01:27:01.268Z,13.20
2018-10-03T01:29:29.838Z,13.17
2018-10-03T01:31:58.468Z,13.34
2018-10-03T01:34:27.508Z,13.26
2018-10-03T01:36:56.088Z,13.26
2018-10-03T01:39:24.728Z,13.27
2018-10-03T01:41:53.379Z,13.21
2018-10-03T01:44:22.045Z,13.36
2018-10-03T01:46:50.671Z,13.37
2018-10-03T01:49:19.249Z,13.48
2018-10-03T01:51:47.952Z,13.49
2018-10-03T01:54:16.628Z,13.52
2018-10-03T01:56:45.630Z,13.35
2018-10-03T01:59:14.632Z,13.48
2018-10-03T02:01:43.605Z,13.55
2018-10-03T02:04:12.193Z,13.64
2018-10-03T02:06:40.765Z,13.67
2018-10-03T02:09:09.463Z,13.61
2018-10-03T02:11:38.071Z,13.67
2018-10-03T02:14:06.755Z,13.75
2018-10-03T02:16:35.784Z,13.74
2018-10-03T02:19:04.447Z,13.59
2018-10-03T02:21:33.007Z,13.75
2018-10-03T02:24:02.084Z,13.72
2018-10-03T02:26:30.672Z,13.70
2018-10-03T02:28:59.291Z,13.76
2018-10-03T02:31:27.900Z,13.78
2018-10-03T02:33:56.528Z,13.68
2018-10-03T02:36:25.100Z,13.71
2018-10-03T02:38:53.741Z,13.65
2018-10-03T02:41:22.324Z,13.70
2018-10-03T02:43:51.413Z,13.64
2018-10-03T02:46:20.040Z,13.66
2018-10-03T02:48:48.775Z,13.56
2018-10-03T02:51:17.382Z,13.69
2018-10-03T02:53:46.436Z,13.66
2018-10-03T02:56:15.044Z,13.61
2018-10-03T02:58:43.655Z,13.54
2018-10-03T03:01:12.361Z,13.50
2018-10-03T03:03:40.956Z,13.32
2018-10-03T03:06:10.124Z,13.37
2018-10-03T03:08:39.074Z,13.47
2018-10-03T03:11:07.836Z,13.41
2018-10-03T03:13:36.431Z,13.31
2018-10-03T03:16:05.063Z,13.38
2018-10-03T03:18:33.788Z,13.39
2018-10-03T03:21:02.912Z,13.28
2018-10-03T03:23:31.695Z,13.20
2018-10-03T03:26:00.315Z,13.19
2018-10-03T03:28:28.897Z,13.17
2018-10-03T03:30:57.595Z,13.09
2018-10-03T03:33:26.558Z,13.23
2018-10-03T03:35:55.151Z,13.17
2018-10-03T03:38:23.809Z,13.13
2018-10-03T03:40:52.494Z,13.06
2018-10-03T03:43:21.079Z,12.95
2018-10-03T03:45:49.759Z,13.00
2018-10-03T03:48:18.385Z,13.07
2018-10-03T03:50:46.975Z,13.04
2018-10-03T03:53:15.656Z,13.01
2018-10-03T03:55:44.636Z,13.07
2018-10-03T03:58:13.487Z,12.93
2018-10-03T04:00:42.120Z,13.06
2018-10-03T04:03:11.135Z,12.97
2018-10-03T04:05:39.823Z,12.92
2018-10-03T04:08:09.526Z,12.94
2018-10-03T04:10:38.169Z,12.95
2018-10-03T04:13:06.772Z,13.04
2018-10-03T04:15:35.520Z,13.13
2018-10-03T04:18:04.084Z,13.07
2018-10-03T04:20:32.669Z,13.06
2018-10-03T04:23:01.313Z,13.20
2018-10-03T04:25:30.268Z,13.19
2018-10-03T04:27:58.861Z,13.15
2018-10-03T04:30:27.539Z,13.09
2018-10-03T04:32:56.110Z,13.20
2018-10-03T04:35:25.195Z,13.24
2018-10-03T04:37:53.795Z,13.07
2018-10-03T04:40:22.441Z,13.06
2018-10-03T04:42:51.007Z,13.06
2018-10-03T04:45:19.900Z,13.02
2018-10-03T04:47:48.488Z,12.91
2018-10-03T04:50:17.068Z,12.99
2018-10-03T04:52:45.832Z,13.02
2018-10-03T04:55:14.445Z,13.11
2018-10-03T04:57:43.052Z,13.09
2018-10-03T05:00:12.052Z,13.04
2018-10-03T05:02:40.612Z,12.91
2018-10-03T05:05:09.195Z,12.97
2018-10-03T05:07:37.896Z,13.05
2018-10-03T05:10:06.664Z,13.04
2018-10-03T05:12:35.280Z,13.09
2018-10-03T05:15:04.311Z,13.06
2018-10-03T05:17:32.887Z,13.19
2018-10-03T05:20:01.593Z,13.24
2018-10-03T05:22:30.183Z,13.17
2018-10-03T05:24:58.809Z,13.23
2018-10-03T05:27:27.451Z,13.23
2018-10-03T05:29:56.285Z,13.31
2018-10-03T05:32:24.847Z,13.24
2018-10-03T05:34:53.451Z,13.30
2018-10-03T05:37:22.675Z,13.40
2018-10-03T05:39:51.249Z,13.39
2018-10-03T05:42:19.842Z,13.46
2018-10-03T05:44:48.587Z,13.47
2018-10-03T05:47:17.242Z,13.40
2018-10-03T05:49:46.430Z,13.38
2018-10-03T05:52:15.268Z,13.53
2018-10-03T05:54:43.863Z,13.59
2018-10-03T05:57:12.432Z,13.56
2018-10-03T05:59:41.167Z,13.52
2018-10-03T06:02:09.737Z,13.59
2018-10-03T06:04:38.356Z,13.52
2018-10-03T06:07:07.059Z,13.54
2018-10-03T06:09:35.672Z,13.63
2018-10-03T06:12:04.300Z,13.62
2018-10-03T06:14:33.428Z,13.68
2018-10-03T06:17:02.020Z,13.58
2018-10-03T06:19:30.600Z,13.59
2018-10-03T06:21:59.351Z,13.79
2018-10-03T06:24:27.963Z,13.82
2018-10-03T06:26:56.544Z,13.83
2018-10-03T06:29:25.324Z,13.74
2018-10-03T06:31:53.884Z,13.73
2018-10-03T06:34:22.588Z,13.87
2018-10-03T06:36:51.219Z,14.01
2018-10-03T06:39:19.840Z,13.69
2018-10-03T06:41:48.414Z,13.57
2018-10-03T06:44:17.023Z,13.50
2018-10-03T06:46:45.605Z,13.45
2018-10-03T06:49:14.328Z,13.43
2018-10-03T06:51:43.037Z,13.47
2018-10-03T06:54:11.601Z,13.43
2018-10-03T06:56:40.348Z,13.44
2018-10-03T06:59:09.114Z,13.38
2018-10-03T07:01:37.712Z,13.35
2018-10-03T07:04:06.908Z,13.38
2018-10-03T07:06:35.629Z,13.30
2018-10-03T07:09:05.319Z,13.15
2018-10-03T07:11:33.876Z,13.18
2018-10-03T07:14:02.535Z,13.13
2018-10-03T07:16:31.494Z,13.15
2018-10-03T07:19:00.353Z,13.13
2018-10-03T07:21:28.972Z,13.11
2018-10-03T07:23:57.521Z,13.14
2018-10-03T07:26:26.104Z,13.18
2018-10-03T07:28:54.759Z,13.18
2018-10-03T07:31:23.343Z,13.18
2018-10-03T07:33:52.040Z,13.20
2018-10-03T07:36:20.754Z,13.21
2018-10-03T07:38:49.354Z,13.24
2018-10-03T07:41:17.935Z,13.30
2018-10-03T07:43:46.635Z,13.24
2018-10-03T07:46:15.188Z,13.30
2018-10-03T07:48:43.911Z,13.28
2018-10-03T07:51:12.548Z,13.33
2018-10-03T07:53:41.167Z,13.43
2018-10-03T07:56:10.195Z,13.49
2018-10-03T07:58:38.924Z,13.55
2018-10-03T08:01:07.645Z,13.68
2018-10-03T08:03:36.217Z,13.77
2018-10-03T08:06:05.216Z,13.84
2018-10-03T08:08:34.161Z,13.93
2018-10-03T08:11:02.836Z,14.01
2018-10-03T08:13:32.093Z,14.12
2018-10-03T08:16:00.716Z,14.16
2018-10-03T08:18:29.300Z,14.23
2018-10-03T08:20:57.908Z,14.30
2018-10-03T08:23:26.481Z,14.38
2018-10-03T08:25:55.092Z,14.43
2018-10-03T08:28:23.967Z,14.48
2018-10-03T08:30:52.639Z,14.50
2018-10-03T08:33:21.705Z,14.60
2018-10-03T08:35:50.775Z,14.64
2018-10-03T08:38:19.378Z,14.77
2018-10-03T08:40:47.980Z,14.94
2018-10-03T08:43:16.637Z,15.06
2018-10-03T08:45:45.208Z,15.16
2018-10-03T08:48:13.796Z,15.20
2018-10-03T08:50:42.401Z,15.31
2018-10-03T08:53:10.955Z,15.40
2018-10-03T08:55:39.532Z,15.50
2018-10-03T08:58:08.298Z,15.70
2018-10-03T09:00:37.236Z,15.72
2018-10-03T09:03:05.913Z,15.95
2018-10-03T09:05:34.622Z,16.01
2018-10-03T09:08:09.012Z,16.08
2018-10-03T09:10:37.820Z,16.22
2018-10-03T09:13:06.379Z,16.35
2018-10-03T09:15:35.011Z,16.52
2018-10-03T09:18:04.039Z,16.64
2018-10-03T09:20:32.612Z,16.76
2018-10-03T09:23:01.189Z,16.96
2018-10-03T09:25:29.905Z,17.13
2018-10-03T09:27:58.497Z,17.45
2018-10-03T09:30:27.076Z,17.41
2018-10-03T09:32:55.762Z,17.56
2018-10-03T09:35:24.344Z,17.59
2018-10-03T09:37:52.933Z,17.69
2018-10-03T09:40:21.676Z,17.68
2018-10-03T09:42:50.251Z,17.61
2018-10-03T09:45:18.840Z,17.61
2018-10-03T09:47:47.481Z,17.72
2018-10-03T09:50:16.088Z,17.84
2018-10-03T09:52:44.663Z,18.04
2018-10-03T09:55:13.384Z,17.94
2018-10-03T09:57:42.005Z,18.08
2018-10-03T10:00:10.630Z,18.00
2018-10-03T10:02:39.275Z,18.17
2018-10-03T10:05:07.895Z,18.17
2018-10-03T10:07:36.484Z,18.38
2018-10-03T10:10:05.152Z,18.67
2018-10-03T10:12:33.719Z,18.93
2018-10-03T10:15:02.288Z,19.16
2018-10-03T10:17:30.952Z,19.35
2018-10-03T10:19:59.603Z,20.02
2018-10-03T10:22:28.192Z,20.03
2018-10-03T10:24:56.822Z,20.01
2018-10-03T10:27:25.447Z,19.80
2018-10-03T10:29:54.027Z,20.23
2018-10-03T10:32:23.149Z,20.23
2018-10-03T10:34:51.632Z,20.31
2018-10-03T10:37:20.204Z,20.20
2018-10-03T10:39:49.100Z,20.23
2018-10-03T10:42:17.680Z,20.78
2018-10-03T10:44:46.248Z,20.94
2018-10-03T10:47:14.952Z,20.77
2018-10-03T10:49:43.537Z,20.77
2018-10-03T10:52:12.106Z,20.41
2018-10-03T10:54:40.720Z,19.94
2018-10-03T10:57:09.328Z,20.01
2018-10-03T10:59:38.017Z,19.99
2018-10-03T11:02:06.621Z,19.38
2018-10-03T11:04:35.244Z,19.36
2018-10-03T11:07:04.316Z,19.21
2018-10-03T11:09:33.049Z,19.43
2018-10-03T11:12:01.629Z,19.47
2018-10-03T11:14:30.240Z,20.38
2018-10-03T11:16:58.984Z,20.54
2018-10-03T11:19:27.607Z,21.39
2018-10-03T11:21:56.187Z,22.47
2018-10-03T11:24:25.134Z,23.21
2018-10-03T11:26:53.597Z,23.10
2018-10-03T11:29:22.192Z,21.80
2018-10-03T11:31:51.368Z,21.12
2018-10-03T11:34:19.981Z,20.69
2018-10-03T11:36:48.615Z,20.30
2018-10-03T11:39:17.289Z,21.60
2018-10-03T11:41:45.876Z,23.44
2018-10-03T11:44:14.496Z,25.12
2018-10-03T11:46:43.131Z,26.39
2018-10-03T11:49:11.710Z,26.57
2018-10-03T11:51:40.336Z,25.84
2018-10-03T11:54:09.493Z,25.51
2018-10-03T11:56:38.112Z,23.92
2018-10-03T11:59:06.696Z,23.27
2018-10-03T12:01:35.647Z,22.23
2018-10-03T12:04:04.253Z,21.25
2018-10-03T12:06:32.877Z,20.76
2018-10-03T12:09:01.915Z,20.33
2018-10-03T12:11:30.519Z,20.01
2018-10-03T12:13:59.116Z,19.65
2018-10-03T12:16:27.816Z,19.55
2018-10-03T12:18:56.432Z,19.54
2018-10-03T12:21:24.979Z,19.57
2018-10-03T12:23:53.673Z,19.39
2018-10-03T12:26:22.280Z,19.20
2018-10-03T12:28:50.876Z,19.04
2018-10-03T12:31:19.544Z,18.90
2018-10-03T12:33:48.253Z,18.80
2018-10-03T12:36:17.558Z,18.68
2018-10-03T12:38:46.299Z,18.59
2018-10-03T12:41:14.917Z,18.50
2018-10-03T12:43:43.504Z,18.39
2018-10-03T12:46:12.125Z,18.37
2018-10-03T12:48:40.703Z,18.30
2018-10-03T12:51:09.297Z,18.27
2018-10-03T12:53:38.667Z,18.13
2018-10-03T12:56:07.288Z,17.99
2018-10-03T12:58:35.951Z,17.53
2018-10-03T13:01:04.751Z,17.58
2018-10-03T13:03:33.886Z,17.49
2018-10-03T13:06:02.460Z,17.47
2018-10-03T13:08:31.078Z,17.45
2018-10-03T13:10:59.665Z,17.51
2018-10-03T13:13:28.247Z,17.37
2018-10-03T13:15:56.999Z,17.35
2018-10-03T13:18:25.588Z,17.37
2018-10-03T13:20:54.171Z,17.41
2018-10-03T13:23:23.108Z,17.47
2018-10-03T13:25:51.708Z,17.50
2018-10-03T13:28:20.300Z,17.51
2018-10-03T13:30:49.000Z,17.57
2018-10-03T13:33:17.611Z,17.63
2018-10-03T13:35:46.210Z,17.64
2018-10-03T13:38:14.932Z,17.58
2018-10-03T13:40:43.568Z,17.61
2018-10-03T13:43:12.135Z,17.63
2018-10-03T13:45:41.114Z,17.54
2018-10-03T13:48:09.704Z,17.91
2018-10-03T13:50:38.312Z,18.06
2018-10-03T13:53:06.994Z,18.10
2018-10-03T13:55:35.576Z,18.12
2018-10-03T13:58:04.370Z,18.19
2018-10-03T14:00:33.143Z,18.18
2018-10-03T14:03:01.792Z,18.26
2018-10-03T14:05:30.363Z,18.31
2018-10-03T14:07:59.068Z,18.30
2018-10-03T14:10:27.654Z,18.37
2018-10-03T14:12:56.229Z,18.43
2018-10-03T14:15:25.238Z,18.46
2018-10-03T14:17:53.839Z,18.48
2018-10-03T14:20:22.455Z,18.53
2018-10-03T14:22:51.282Z,18.53
2018-10-03T14:25:19.920Z,18.45
2018-10-03T14:27:48.488Z,18.54
2018-10-03T14:30:17.997Z,18.57
2018-10-03T14:32:46.659Z,18.54
2018-10-03T14:35:16.328Z,18.42
2018-10-03T14:37:44.964Z,18.45
2018-10-03T14:40:13.618Z,18.50
2018-10-03T14:42:42.220Z,18.47
2018-10-03T14:45:11.273Z,18.47
2018-10-03T14:47:41.219Z,18.41
2018-10-03T14:50:11.204Z,18.46
2018-10-03T14:52:40.611Z,18.44
2018-10-03T14:55:10.089Z,18.48
2018-10-03T14:57:38.837Z,18.43
2018-10-03T15:00:09.749Z,18.40
2018-10-03T15:02:38.565Z,18.38
2018-10-03T15:05:08.392Z,18.35
2018-10-03T15:07:37.107Z,18.26
2018-10-03T15:10:07.408Z,18.25
2018-10-03T15:12:36.166Z,18.33
2018-10-03T15:15:06.736Z,18.22
2018-10-03T15:17:36.585Z,18.12
2018-10-03T15:20:06.704Z,18.15
2018-10-03T15:22:37.112Z,18.14
2018-10-03T15:25:05.751Z,18.18
2018-10-03T15:27:34.576Z,18.19
2018-10-03T15:30:03.876Z,18.21
2018-10-03T15:32:33.104Z,18.15
2018-10-03T15:35:03.417Z,18.10
2018-10-03T15:37:33.389Z,18.14
2018-10-03T15:40:03.747Z,18.15
2018-10-03T15:42:33.584Z,18.15
2018-10-03T15:45:03.413Z,18.18
2018-10-03T15:47:33.308Z,18.15
2018-10-03T15:50:03.576Z,18.15
2018-10-03T15:52:34.396Z,18.15
2018-10-03T15:55:05.239Z,18.14
2018-10-03T15:57:35.112Z,18.09
2018-10-03T16:00:04.656Z,18.10
2018-10-03T16:02:34.889Z,18.09
2018-10-03T16:05:03.728Z,18.03
2018-10-03T16:07:32.362Z,18.00
2018-10-03T16:10:01.047Z,17.90
2018-10-03T16:12:29.635Z,17.87
2018-10-03T16:14:58.204Z,17.80
2018-10-03T16:17:26.811Z,17.79
2018-10-03T16:19:55.392Z,17.78
2018-10-03T16:22:24.040Z,17.80
2018-10-03T16:24:52.656Z,17.71
2018-10-03T16:27:21.263Z,17.68
2018-10-03T16:29:49.840Z,17.65
2018-10-03T16:32:18.539Z,17.61
2018-10-03T16:34:47.130Z,17.62
2018-10-03T16:37:15.748Z,17.61
2018-10-03T16:39:44.403Z,17.52
2018-10-03T16:42:12.986Z,17.39
2018-10-03T16:44:41.592Z,17.44
2018-10-03T16:47:11.085Z,17.42
2018-10-03T16:49:39.829Z,17.33
2018-10-03T16:52:08.460Z,17.26
2018-10-03T16:54:37.088Z,17.11
2018-10-03T16:57:06.774Z,17.09
2018-10-03T16:59:35.540Z,17.09
2018-10-03T17:02:04.248Z,17.05
2018-10-03T17:04:32.832Z,16.97
2018-10-03T17:07:01.487Z,16.99
2018-10-03T17:09:30.471Z,17.02
2018-10-03T17:11:59.048Z,16.95
2018-10-03T17:14:35.516Z,16.84
2018-10-03T17:17:04.815Z,16.85
2018-10-03T17:19:33.971Z,16.74
2018-10-03T17:22:04.132Z,16.72
2018-10-03T17:24:34.303Z,16.74
2018-10-03T17:27:02.936Z,16.68
2018-10-03T17:29:31.514Z,16.64
2018-10-03T17:32:00.315Z,16.60
2018-10-03T17:34:28.908Z,16.61
2018-10-03T17:36:57.592Z,16.61
2018-10-03T17:39:27.128Z,16.57
2018-10-03T17:41:55.719Z,16.50
2018-10-03T17:44:24.951Z,16.42
2018-10-03T17:46:55.409Z,16.33
2018-10-03T17:49:24.008Z,16.26
2018-10-03T17:51:52.669Z,16.22
2018-10-03T17:54:22.189Z,16.14
2018-10-03T17:56:50.751Z,15.98
2018-10-03T17:59:19.327Z,15.92
2018-10-03T18:01:50.079Z,15.73
2018-10-03T18:04:18.868Z,15.73
2018-10-03T18:06:47.405Z,15.73
2018-10-03T18:09:16.157Z,15.69
2018-10-03T18:11:44.774Z,15.74
2018-10-03T18:14:13.348Z,15.71
2018-10-03T18:16:41.988Z,15.69
2018-10-03T18:19:10.572Z,15.60
2018-10-03T18:21:39.148Z,15.51
2018-10-03T18:24:07.926Z,15.49
2018-10-03T18:26:36.503Z,15.46
2018-10-03T18:29:05.208Z,15.45
2018-10-03T18:31:34.006Z,15.38
2018-10-03T18:34:02.588Z,15.35
2018-10-03T18:36:31.184Z,15.31
2018-10-03T18:38:59.902Z,15.24
2018-10-03T18:41:28.588Z,15.20
2018-10-03T18:43:57.190Z,15.17
2018-10-03T18:46:25.907Z,15.11
2018-10-03T18:48:54.483Z,15.10
2018-10-03T18:51:23.077Z,15.09
2018-10-03T18:53:52.254Z,15.08
2018-10-03T18:56:20.891Z,15.08
2018-10-03T18:58:49.540Z,15.05
2018-10-03T19:01:18.460Z,15.04
2018-10-03T19:03:47.364Z,15.01
2018-10-03T19:06:16.007Z,14.96
2018-10-03T19:08:44.712Z,14.92
2018-10-03T19:11:13.324Z,14.86
2018-10-03T19:13:42.125Z,14.84
2018-10-03T19:16:10.731Z,14.74
2018-10-03T19:18:39.300Z,14.68
2018-10-03T19:21:07.913Z,14.63
2018-10-03T19:23:36.620Z,14.60
2018-10-03T19:26:05.277Z,14.55
2018-10-03T19:28:33.851Z,14.56
2018-10-03T19:31:02.663Z,14.53
2018-10-03T19:33:31.319Z,14.48
2018-10-03T19:36:00.179Z,14.45
2018-10-03T19:38:28.833Z,14.43
2018-10-03T19:40:57.416Z,14.37
2018-10-03T19:43:26.029Z,14.39
2018-10-03T19:45:55.176Z,14.40
2018-10-03T19:48:23.819Z,14.43
2018-10-03T19:50:53.249Z,14.40
2018-10-03T19:53:27.819Z,14.38
2018-10-03T19:55:57.620Z,14.38
2018-10-03T19:58:26.203Z,14.42
2018-10-03T20:00:54.930Z,14.48
2018-10-03T20:03:24.980Z,14.46
2018-10-03T20:05:53.645Z,14.48
2018-10-03T20:08:23.428Z,14.49
2018-10-03T20:10:52.259Z,14.54
2018-10-03T20:13:21.308Z,14.53
2018-10-03T20:15:50.741Z,14.56
2018-10-03T20:18:20.053Z,14.58
2018-10-03T20:20:49.493Z,14.51
2018-10-03T20:23:18.453Z,14.52
2018-10-03T20:25:47.496Z,14.50
2018-10-03T20:28:16.388Z,14.46
2018-10-03T20:30:45.596Z,14.34
2018-10-03T20:33:14.328Z,14.27
2018-10-03T20:35:42.965Z,14.05
2018-10-03T20:38:11.623Z,14.11
2018-10-03T20:40:40.230Z,14.21
2018-10-03T20:43:08.875Z,14.28
2018-10-03T20:45:37.467Z,14.21
2018-10-03T20:48:06.314Z,14.17
2018-10-03T20:50:34.956Z,14.15
2018-10-03T20:53:03.675Z,14.10
2018-10-03T20:55:32.268Z,14.12
2018-10-03T20:58:00.848Z,14.10
2018-10-03T21:00:29.801Z,14.07
2018-10-03T21:02:58.658Z,14.05
2018-10-03T21:05:27.231Z,14.11
2018-10-03T21:07:56.229Z,14.13
2018-10-03T21:10:24.812Z,14.09
2018-10-03T21:12:53.418Z,13.97
2018-10-03T21:15:22.394Z,14.04
2018-10-03T21:17:50.988Z,13.97
2018-10-03T21:20:19.606Z,13.92
2018-10-03T21:22:48.361Z,13.87
2018-10-03T21:25:17.047Z,13.85
2018-10-03T21:27:45.649Z,13.81
2018-10-03T21:30:14.703Z,13.79
2018-10-03T21:32:43.308Z,13.83
2018-10-03T21:35:11.908Z,13.87
2018-10-03T21:37:41.239Z,13.90
2018-10-03T21:40:09.963Z,13.86
2018-10-03T21:42:38.597Z,13.88
2018-10-03T21:45:07.896Z,13.91
2018-10-03T21:47:36.577Z,13.95
2018-10-03T21:50:05.471Z,13.95
2018-10-03T21:52:34.107Z,13.96
2018-10-03T21:55:03.081Z,13.96
2018-10-03T21:57:32.091Z,13.91
2018-10-03T22:00:00.800Z,13.90
2018-10-03T22:02:29.503Z,13.95
2018-10-03T22:04:58.274Z,13.94
2018-10-03T22:07:26.908Z,13.96
2018-10-03T22:09:55.507Z,13.90
2018-10-03T22:12:24.097Z,13.91
2018-10-03T22:14:52.851Z,13.82
2018-10-03T22:17:23.379Z,13.76
2018-10-03T22:19:53.028Z,13.71
2018-10-03T22:22:21.649Z,13.71
2018-10-03T22:24:50.297Z,13.71
2018-10-03T22:27:19.056Z,13.67
2018-10-03T22:29:48.501Z,13.63
2018-10-03T22:32:17.230Z,13.58
2018-10-03T22:34:46.073Z,13.56
2018-10-03T22:37:14.702Z,13.57
2018-10-03T22:39:43.332Z,13.52
2018-10-03T22:42:12.407Z,13.51
2018-10-03T22:44:41.016Z,13.51
2018-10-03T22:47:09.636Z,13.43
2018-10-03T22:49:38.348Z,13.42
2018-10-03T22:52:07.068Z,13.47
2018-10-03T22:54:35.779Z,13.53
2018-10-03T22:57:04.816Z,13.54
2018-10-03T22:59:33.492Z,13.49
2018-10-03T23:02:02.080Z,13.37
2018-10-03T23:04:30.768Z,13.33
2018-10-03T23:06:59.336Z,13.36
2018-10-03T23:09:27.935Z,13.37
2018-10-03T23:11:56.616Z,13.37
2018-10-03T23:14:25.214Z,13.33
2018-10-03T23:16:53.891Z,13.32
2018-10-03T23:19:22.572Z,13.35
2018-10-03T23:21:51.188Z,13.30
2018-10-03T23:24:19.776Z,13.29
2018-10-03T23:26:48.452Z,13.28
2018-10-03T23:29:17.020Z,13.22
2018-10-03T23:31:45.728Z,13.19
2018-10-03T23:34:14.366Z,13.19
2018-10-03T23:36:43.048Z,13.17
2018-10-03T23:39:12.740Z,13.17
2018-10-03T23:41:41.600Z,13.10
2018-10-03T23:44:11.417Z,13.09
2018-10-03T23:46:40.068Z,13.07
2018-10-03T23:49:08.659Z,13.05
2018-10-03T23:51:37.236Z,12.96
2018-10-03T23:54:05.805Z,12.96
2018-10-03T23:56:34.524Z,12.96
2018-10-03T23:59:03.102Z,13.01
